Time;durP1;ratioP1;P1;durP2;ratioP2;P2;SDS_P1;SDS_P2;PMS_P1;PMS_P2;Temp;Humidity;BMP_temperature;BMP_pressure;BME280_temperature;BME280_humidity;BME280_pressure;Samples;Min_cycle;Max_cycle;Signal;HPM_P1;HPM_P2
2021/10/27 00:00:10;;;;;;;8.25;5.47;;;;;19.70;101935.00;;;;5028782;28;21058;-80
2021/10/27 00:02:38;;;;;;;7.07;6.35;;;;;19.70;101936.00;;;;5029847;28;20200;-80
2021/10/27 00:05:08;;;;;;;8.05;5.90;;;;;19.70;101940.00;;;;5030205;28;20215;-80
2021/10/27 00:07:35;;;;;;;7.35;6.07;;;;;19.70;101940.00;;;;5034302;28;20204;-81
2021/10/27 00:10:02;;;;;;;9.00;5.93;;;;;19.70;101939.00;;;;5033366;28;20662;-79
2021/10/27 00:12:29;;;;;;;7.50;6.15;;;;;19.70;101935.00;;;;5028794;28;20196;-80
2021/10/27 00:14:57;;;;;;;12.13;5.88;;;;;19.70;101931.00;;;;5028101;28;20220;-80
2021/10/27 00:17:24;;;;;;;7.40;6.18;;;;;19.70;101935.00;;;;5043444;28;20639;-80
2021/10/27 00:19:52;;;;;;;8.15;6.28;;;;;19.80;101944.00;;;;5034065;28;20208;-81
2021/10/27 00:22:20;;;;;;;6.20;4.65;;;;;19.80;101937.00;;;;5038356;28;20188;-80
2021/10/27 00:24:48;;;;;;;7.20;5.28;;;;;19.80;101929.00;;;;5029130;28;20207;-80
2021/10/27 00:27:15;;;;;;;6.22;5.57;;;;;19.80;101931.00;;;;5034419;28;20203;-81
2021/10/27 00:29:42;;;;;;;7.13;5.35;;;;;19.80;101928.00;;;;5028412;28;20640;-80
2021/10/27 00:32:09;;;;;;;8.43;5.28;;;;;19.80;101923.00;;;;5028787;28;20200;-80
2021/10/27 00:34:37;;;;;;;5.45;4.78;;;;;19.80;101930.00;;;;5044319;28;20234;-79
2021/10/27 00:37:04;;;;;;;7.15;5.43;;;;;19.80;101933.00;;;;5043922;28;20202;-80
2021/10/27 00:39:34;;;;;;;8.23;5.18;;;;;19.80;101922.00;;;;5047045;28;20211;-80
2021/10/27 00:42:01;;;;;;;6.00;4.90;;;;;19.80;101936.00;;;;5030359;28;21193;-79
2021/10/27 00:44:29;;;;;;;6.72;4.80;;;;;19.80;101933.00;;;;5034171;28;20203;-80
2021/10/27 00:47:00;;;;;;;6.05;4.45;;;;;19.80;101931.00;;;;5032034;28;20230;-80
2021/10/27 00:49:27;;;;;;;8.07;4.38;;;;;19.90;101932.00;;;;5028606;28;20196;-80
2021/10/27 00:51:55;;;;;;;8.65;4.63;;;;;19.90;101929.00;;;;5031072;28;20224;-80
2021/10/27 00:54:22;;;;;;;6.80;4.32;;;;;19.90;101932.00;;;;5029259;28;20224;-80
2021/10/27 00:56:54;;;;;;;5.85;4.35;;;;;19.90;101933.00;;;;5031490;28;20204;-79
2021/10/27 00:59:24;;;;;;;5.18;3.75;;;;;19.90;101927.00;;;;5032441;28;20561;-79
2021/10/27 01:01:52;;;;;;;7.28;4.20;;;;;20.00;101931.00;;;;5032582;28;20284;-80
2021/10/27 01:04:20;;;;;;;17.42;4.20;;;;;20.00;101933.00;;;;5048192;28;20199;-80
2021/10/27 01:06:47;;;;;;;8.15;4.63;;;;;20.00;101937.00;;;;5051807;28;20223;-79
2021/10/27 01:09:15;;;;;;;7.45;4.00;;;;;20.00;101930.00;;;;5042230;28;20200;-80
2021/10/27 01:11:44;;;;;;;8.15;4.13;;;;;20.00;101930.00;;;;5032266;28;20244;-80
2021/10/27 01:14:13;;;;;;;5.90;3.70;;;;;20.00;101922.00;;;;5031962;28;20207;-80
2021/10/27 01:16:40;;;;;;;6.78;3.75;;;;;20.00;101930.00;;;;5032182;28;20215;-80
2021/10/27 01:19:08;;;;;;;8.30;3.85;;;;;20.00;101938.00;;;;5031964;28;20196;-79
2021/10/27 01:21:40;;;;;;;7.20;4.70;;;;;20.00;101930.00;;;;5036514;28;20267;-80
2021/10/27 01:24:08;;;;;;;5.97;4.25;;;;;20.00;101934.00;;;;5034101;28;20196;-81
2021/10/27 01:26:37;;;;;;;4.20;3.78;;;;;20.00;101940.00;;;;5034538;28;20211;-80
2021/10/27 01:29:04;;;;;;;5.03;3.33;;;;;20.00;101937.00;;;;5042000;28;20279;-80
2021/10/27 01:31:31;;;;;;;7.30;3.78;;;;;20.00;101938.00;;;;5031616;28;20201;-80
2021/10/27 01:34:00;;;;;;;8.68;4.32;;;;;20.00;101941.00;;;;5031490;28;20205;-80
2021/10/27 01:36:29;;;;;;;8.05;4.30;;;;;20.00;101935.00;;;;5032096;28;20220;-81
2021/10/27 01:38:58;;;;;;;5.53;4.22;;;;;20.00;101939.00;;;;5036277;28;20200;-80
2021/10/27 01:41:27;;;;;;;7.75;4.13;;;;;20.00;101940.00;;;;5031122;28;20228;-80
2021/10/27 01:43:56;;;;;;;6.18;4.13;;;;;20.00;101937.00;;;;5041444;28;20204;-80
2021/10/27 01:46:29;;;;;;;5.43;3.78;;;;;19.90;101937.00;;;;5036737;28;20215;-79
2021/10/27 01:48:57;;;;;;;4.07;3.35;;;;;20.00;101935.00;;;;5031399;28;20192;-80
2021/10/27 01:51:24;;;;;;;4.88;3.85;;;;;20.00;101931.00;;;;5044438;28;20265;-80
2021/10/27 01:53:52;;;;;;;6.63;3.65;;;;;20.00;101925.00;;;;5036952;28;20270;-80
2021/10/27 01:56:21;;;;;;;4.35;3.25;;;;;20.00;101923.00;;;;5032294;28;20224;-80
2021/10/27 01:58:49;;;;;;;6.10;3.17;;;;;20.00;101920.00;;;;5031596;28;20192;-81
2021/10/27 02:01:16;;;;;;;7.55;3.10;;;;;20.00;101925.00;;;;5032379;28;20200;-80
2021/10/27 02:03:44;;;;;;;4.80;2.80;;;;;20.00;101924.00;;;;5031028;28;20208;-80
2021/10/27 02:06:12;;;;;;;5.38;2.95;;;;;20.00;101929.00;;;;5031879;28;20216;-80
2021/10/27 02:08:39;;;;;;;8.13;3.47;;;;;20.00;101930.00;;;;5031718;28;20208;-80
2021/10/27 02:11:07;;;;;;;4.50;3.17;;;;;20.00;101928.00;;;;5031906;28;20201;-81
2021/10/27 02:13:36;;;;;;;6.47;2.97;;;;;20.00;101936.00;;;;5035315;28;20634;-80
2021/10/27 02:16:03;;;;;;;7.18;3.45;;;;;20.00;101932.00;;;;5033981;28;20224;-81
2021/10/27 02:18:31;;;;;;;7.07;3.47;;;;;20.00;101929.00;;;;5042612;28;20200;-81
2021/10/27 02:20:58;;;;;;;5.00;3.08;;;;;20.00;101928.00;;;;5042314;28;20226;-80
2021/10/27 02:23:25;;;;;;;10.88;3.35;;;;;20.00;101924.00;;;;5041424;28;20201;-81
2021/10/27 02:25:52;;;;;;;4.55;2.60;;;;;20.00;101920.00;;;;5030751;28;20454;-80
2021/10/27 02:28:20;;;;;;;5.72;2.35;;;;;20.00;101916.00;;;;5041297;28;20673;-80
2021/10/27 02:30:49;;;;;;;3.60;2.15;;;;;20.00;101910.00;;;;5043902;28;20662;-80
2021/10/27 02:33:16;;;;;;;9.57;2.45;;;;;20.00;101911.00;;;;5030204;28;20191;-79
2021/10/27 02:35:44;;;;;;;6.15;2.33;;;;;20.00;101920.00;;;;5032507;28;20239;-80
2021/10/27 02:38:11;;;;;;;2.88;1.58;;;;;20.00;101914.00;;;;5050780;28;20693;-80
2021/10/27 02:40:38;;;;;;;3.20;1.58;;;;;20.00;101915.00;;;;5033532;28;20232;-80
2021/10/27 02:43:06;;;;;;;2.70;1.70;;;;;20.00;101914.00;;;;5030549;28;20692;-80
2021/10/27 02:45:33;;;;;;;4.47;1.55;;;;;20.00;101914.00;;;;5032131;28;20644;-80
2021/10/27 02:48:02;;;;;;;2.67;1.67;;;;;20.00;101913.00;;;;5050321;28;20211;-80
2021/10/27 02:50:29;;;;;;;2.08;1.52;;;;;20.00;101919.00;;;;5037136;28;20196;-80
2021/10/27 02:52:56;;;;;;;2.92;1.73;;;;;20.10;101921.00;;;;5032823;28;20187;-80
2021/10/27 02:55:24;;;;;;;3.58;1.88;;;;;20.10;101910.00;;;;5053098;28;20222;-80
2021/10/27 02:57:52;;;;;;;3.75;2.60;;;;;20.10;101908.00;;;;5038397;28;20207;-80
2021/10/27 03:00:19;;;;;;;3.72;2.47;;;;;20.10;101909.00;;;;5040989;28;20620;-80
2021/10/27 03:02:46;;;;;;;4.90;2.38;;;;;20.10;101912.00;;;;5050292;28;20603;-80
2021/10/27 03:05:15;;;;;;;5.00;2.53;;;;;20.10;101900.00;;;;5046844;28;20222;-80
2021/10/27 03:07:42;;;;;;;5.32;2.53;;;;;20.10;101904.00;;;;5049357;28;20203;-80
2021/10/27 03:10:10;;;;;;;3.67;2.55;;;;;20.10;101902.00;;;;5034328;28;20203;-80
2021/10/27 03:12:37;;;;;;;6.70;2.88;;;;;20.10;101906.00;;;;5036472;28;20207;-81
2021/10/27 03:15:05;;;;;;;3.25;2.55;;;;;20.10;101907.00;;;;5040390;28;20592;-80
2021/10/27 03:17:32;;;;;;;4.47;2.70;;;;;20.10;101909.00;;;;5049035;28;20203;-81
2021/10/27 03:19:59;;;;;;;3.72;2.80;;;;;20.10;101913.00;;;;5048979;28;20195;-80
2021/10/27 03:22:28;;;;;;;6.53;2.45;;;;;20.10;101912.00;;;;5046505;28;20202;-80
2021/10/27 03:24:55;;;;;;;9.07;3.15;;;;;20.10;101919.00;;;;5036259;28;20204;-80
2021/10/27 03:27:23;;;;;;;4.25;2.63;;;;;20.10;101927.00;;;;5029220;28;20208;-79
2021/10/27 03:29:51;;;;;;;7.20;3.13;;;;;20.10;101924.00;;;;5029620;28;20255;-80
2021/10/27 03:32:20;;;;;;;3.88;2.67;;;;;20.10;101924.00;;;;5030522;28;20196;-80
2021/10/27 03:34:49;;;;;;;4.82;2.60;;;;;20.10;101926.00;;;;5032425;28;20250;-80
2021/10/27 03:37:16;;;;;;;5.05;2.30;;;;;20.10;101924.00;;;;5049413;28;20283;-80
2021/10/27 03:39:45;;;;;;;3.40;2.50;;;;;20.00;101927.00;;;;5033731;28;20303;-80
2021/10/27 03:42:12;;;;;;;2.47;2.28;;;;;20.00;101925.00;;;;5030811;28;20652;-81
2021/10/27 03:44:40;;;;;;;5.75;2.55;;;;;20.00;101933.00;;;;5033665;28;20203;-79
2021/10/27 03:47:07;;;;;;;3.75;2.30;;;;;20.00;101931.00;;;;5029175;28;20228;-79
2021/10/27 03:49:34;;;;;;;3.72;2.30;;;;;20.00;101922.00;;;;5029419;28;20701;-79
2021/10/27 03:52:02;;;;;;;4.53;2.80;;;;;20.00;101919.00;;;;5037002;28;20191;-80
2021/10/27 03:54:30;;;;;;;3.80;2.03;;;;;20.00;101923.00;;;;5037551;28;20199;-80
2021/10/27 03:56:59;;;;;;;2.88;2.03;;;;;20.00;101929.00;;;;5029709;28;20223;-80
2021/10/27 03:59:26;;;;;;;3.72;2.17;;;;;20.00;101931.00;;;;5032150;28;20203;-79
2021/10/27 04:01:53;;;;;;;5.25;1.70;;;;;20.00;101926.00;;;;5029526;28;20239;-80
2021/10/27 04:04:20;;;;;;;5.63;2.13;;;;;20.00;101931.00;;;;5034725;28;20199;-80
2021/10/27 04:06:48;;;;;;;4.22;2.08;;;;;20.00;101931.00;;;;5050413;28;20243;-80
2021/10/27 04:09:15;;;;;;;3.65;2.20;;;;;20.00;101920.00;;;;5041641;28;20207;-80
2021/10/27 04:11:43;;;;;;;3.05;1.38;;;;;20.00;101926.00;;;;5029427;28;20196;-80
2021/10/27 04:14:11;;;;;;;3.13;1.88;;;;;20.00;101935.00;;;;5028603;28;20188;-80
2021/10/27 04:16:39;;;;;;;3.92;1.65;;;;;20.00;101930.00;;;;5029545;28;20220;-81
2021/10/27 04:19:06;;;;;;;2.83;1.70;;;;;20.00;101932.00;;;;5029530;28;20201;-80
2021/10/27 04:21:34;;;;;;;5.47;1.65;;;;;20.00;101923.00;;;;5033223;28;20265;-80
2021/10/27 04:24:01;;;;;;;5.15;1.52;;;;;20.00;101930.00;;;;5044658;28;20195;-80
2021/10/27 04:26:28;;;;;;;3.22;1.48;;;;;20.00;101925.00;;;;5033129;28;20616;-80
2021/10/27 04:28:56;;;;;;;2.72;1.40;;;;;20.00;101931.00;;;;5028882;28;20200;-80
2021/10/27 04:31:25;;;;;;;2.38;1.60;;;;;20.00;101934.00;;;;5028510;28;20254;-80
2021/10/27 04:33:52;;;;;;;3.75;1.80;;;;;20.00;101936.00;;;;5033014;28;20195;-80
2021/10/27 04:36:19;;;;;;;2.03;1.33;;;;;20.00;101942.00;;;;5028786;28;20216;-80
2021/10/27 04:38:47;;;;;;;4.20;2.15;;;;;20.00;101933.00;;;;5028533;28;20205;-80
2021/10/27 04:41:14;;;;;;;2.40;2.03;;;;;20.00;101945.00;;;;5028803;28;20442;-80
2021/10/27 04:43:41;;;;;;;2.20;1.63;;;;;20.00;101940.00;;;;5032422;28;20192;-80
2021/10/27 04:46:08;;;;;;;4.75;1.70;;;;;20.00;101947.00;;;;5038936;28;20206;-81
2021/10/27 04:48:38;;;;;;;3.05;1.90;;;;;20.00;101948.00;;;;5027639;28;20204;-80
2021/10/27 04:51:05;;;;;;;3.72;1.88;;;;;20.00;101948.00;;;;5026991;28;20193;-81
2021/10/27 04:53:32;;;;;;;3.22;1.52;;;;;20.00;101942.00;;;;5037667;28;20600;-78
2021/10/27 04:55:59;;;;;;;2.88;1.75;;;;;20.00;101947.00;;;;5047568;28;20791;-81
2021/10/27 04:58:29;;;;;;;2.33;1.48;;;;;20.00;101941.00;;;;5048605;28;20196;-81
2021/10/27 05:00:57;;;;;;;3.55;1.80;;;;;20.00;101937.00;;;;5040287;28;20204;-79
2021/10/27 05:03:24;;;;;;;3.05;1.75;;;;;20.00;101935.00;;;;5028311;28;20199;-80
2021/10/27 05:05:56;;;;;;;5.10;2.17;;;;;19.90;101928.00;;;;5040470;28;20220;-79
2021/10/27 05:08:24;;;;;;;5.03;2.65;;;;;19.90;101931.00;;;;5028514;28;20458;-80
2021/10/27 05:10:51;;;;;;;3.53;2.03;;;;;20.00;101928.00;;;;5039362;28;20199;-79
2021/10/27 05:13:19;;;;;;;4.15;1.95;;;;;20.00;101930.00;;;;5048746;28;20206;-79
2021/10/27 05:15:47;;;;;;;6.32;1.77;;;;;20.00;101929.00;;;;5037518;28;20254;-81
2021/10/27 05:18:15;;;;;;;4.53;1.90;;;;;20.00;101931.00;;;;5038363;28;20232;-79
2021/10/27 05:20:43;;;;;;;2.72;1.50;;;;;20.00;101927.00;;;;5034383;28;20193;-79
2021/10/27 05:23:11;;;;;;;3.17;1.48;;;;;20.00;101930.00;;;;5036216;28;20208;-78
2021/10/27 05:25:39;;;;;;;2.85;1.45;;;;;20.00;101930.00;;;;5031881;28;20666;-79
2021/10/27 05:28:07;;;;;;;3.65;1.70;;;;;20.00;101932.00;;;;5027915;28;20200;-79
2021/10/27 05:30:34;;;;;;;5.97;2.00;;;;;20.00;101928.00;;;;5033477;28;20222;-79
2021/10/27 05:33:01;;;;;;;5.32;1.75;;;;;20.00;101930.00;;;;5033174;28;20227;-78
2021/10/27 05:35:31;;;;;;;4.63;2.00;;;;;20.00;101926.00;;;;5028224;28;20628;-78
2021/10/27 05:37:59;;;;;;;2.30;1.30;;;;;20.00;101924.00;;;;5032160;28;20191;-79
2021/10/27 05:40:27;;;;;;;2.22;1.38;;;;;20.00;101933.00;;;;5034726;28;20200;-79
2021/10/27 05:42:55;;;;;;;2.83;1.48;;;;;20.00;101928.00;;;;5033844;28;20249;-80
2021/10/27 05:45:25;;;;;;;3.08;1.40;;;;;20.00;101933.00;;;;5033639;28;20203;-79
2021/10/27 05:47:56;;;;;;;3.05;1.30;;;;;20.00;101940.00;;;;5038294;28;20198;-79
2021/10/27 05:50:36;;;;;;;3.70;1.40;;;;;20.00;101939.00;;;;5044746;28;20752;-79
2021/10/27 05:55:50;;;;;;;2.10;1.20;;;;;20.00;101949.00;;;;5039665;28;20223;-80
2021/10/27 05:58:18;;;;;;;2.88;1.55;;;;;20.00;101948.00;;;;5045397;28;20218;-80
2021/10/27 06:00:46;;;;;;;2.33;1.13;;;;;20.00;101948.00;;;;5046579;28;20204;-79
2021/10/27 06:03:14;;;;;;;2.33;1.13;;;;;20.00;101953.00;;;;5041300;28;20215;-81
2021/10/27 06:05:41;;;;;;;2.78;1.42;;;;;20.00;101952.00;;;;5041775;28;21153;-80
2021/10/27 06:08:08;;;;;;;3.13;1.40;;;;;20.00;101956.00;;;;5044031;28;20195;-80
2021/10/27 06:10:36;;;;;;;2.38;1.50;;;;;20.00;101954.00;;;;5040507;28;20288;-80
2021/10/27 06:13:06;;;;;;;2.72;1.15;;;;;20.00;101957.00;;;;5048700;28;20203;-81
2021/10/27 06:15:36;;;;;;;4.03;1.45;;;;;20.10;101956.00;;;;5040222;28;20570;-80
2021/10/27 06:18:04;;;;;;;2.00;1.33;;;;;20.00;101960.00;;;;5036723;28;20291;-80
2021/10/27 06:20:32;;;;;;;3.08;1.35;;;;;20.00;101960.00;;;;5030631;28;20215;-80
2021/10/27 06:23:00;;;;;;;3.90;1.40;;;;;20.00;101962.00;;;;5034356;28;20226;-80
2021/10/27 06:25:28;;;;;;;1.63;1.33;;;;;20.00;101959.00;;;;5040263;28;20231;-80
2021/10/27 06:28:01;;;;;;;2.25;1.50;;;;;20.00;101961.00;;;;5036990;28;20266;-79
2021/10/27 06:30:41;;;;;;;3.85;1.58;;;;;20.00;101964.00;;;;5040204;28;20262;-79
2021/10/27 06:33:19;;;;;;;3.65;1.70;;;;;20.00;101964.00;;;;5036365;28;20966;-80
2021/10/27 06:35:52;;;;;;;4.38;1.70;;;;;20.00;101961.00;;;;5039022;28;20198;-79
2021/10/27 06:46:39;;;;;;;2.92;1.42;;;;;19.90;101965.00;;;;5030135;28;20207;-80
2021/10/27 06:49:06;;;;;;;4.45;1.70;;;;;19.90;101963.00;;;;5035172;28;20204;-78
2021/10/27 06:51:35;;;;;;;3.22;1.77;;;;;19.90;101964.00;;;;5041204;28;20204;-79
2021/10/27 06:54:02;;;;;;;2.85;1.73;;;;;19.90;101975.00;;;;5038528;28;20200;-78
2021/10/27 06:56:30;;;;;;;4.65;1.65;;;;;19.90;101977.00;;;;5037978;28;20224;-79
2021/10/27 06:59:04;;;;;;;2.28;1.70;;;;;19.90;101978.00;;;;5038334;28;20231;-78
2021/10/27 07:01:41;;;;;;;2.92;2.10;;;;;19.90;101984.00;;;;5034819;28;20271;-77
2021/10/27 07:04:32;;;;;;;6.45;2.28;;;;;19.90;101987.00;;;;5034105;28;20196;-77
2021/10/27 07:15:27;;;;;;;3.63;1.95;;;;;19.80;102007.00;;;;5029785;28;20234;-79
2021/10/27 07:17:56;;;;;;;2.67;1.60;;;;;19.90;102011.00;;;;5033816;28;20242;-79
2021/10/27 07:20:25;;;;;;;2.65;1.77;;;;;19.80;102008.00;;;;5035514;28;20581;-79
2021/10/27 07:22:52;;;;;;;2.78;1.67;;;;;19.90;102018.00;;;;5041805;28;20199;-80
2021/10/27 07:25:19;;;;;;;3.58;1.90;;;;;19.90;102020.00;;;;5036911;28;20658;-79
2021/10/27 07:27:49;;;;;;;3.10;2.28;;;;;19.90;102021.00;;;;5036238;28;20210;-79
2021/10/27 07:30:17;;;;;;;6.63;2.30;;;;;19.90;102017.00;;;;5036205;28;20275;-78
2021/10/27 07:32:44;;;;;;;4.47;1.98;;;;;19.90;102029.00;;;;5038172;28;20212;-79
2021/10/27 07:35:20;;;;;;;9.85;2.30;;;;;19.90;102029.00;;;;5035044;28;20651;-79
2021/10/27 07:40:41;;;;;;;4.32;2.03;;;;;19.90;102038.00;;;;5040178;28;20215;-79
2021/10/27 07:43:12;;;;;;;3.13;2.13;;;;;19.90;102034.00;;;;5036618;28;20201;-80
2021/10/27 07:45:40;;;;;;;5.53;2.38;;;;;19.90;102029.00;;;;5033969;28;20208;-79
2021/10/27 07:48:09;;;;;;;7.93;2.70;;;;;19.90;102040.00;;;;5027946;28;20200;-79
2021/10/27 07:50:37;;;;;;;3.70;2.53;;;;;19.90;102038.00;;;;5035625;28;20207;-80
2021/10/27 07:53:07;;;;;;;3.45;2.13;;;;;19.90;102042.00;;;;5028708;28;20204;-79
2021/10/27 07:55:36;;;;;;;3.30;2.60;;;;;19.90;102038.00;;;;5035573;28;20192;-79
2021/10/27 07:58:03;;;;;;;3.97;2.72;;;;;19.90;102039.00;;;;5035981;28;20216;-78
2021/10/27 08:00:31;;;;;;;3.63;2.33;;;;;19.90;102050.00;;;;5028948;28;20215;-80
2021/10/27 08:03:02;;;;;;;4.93;2.80;;;;;19.90;102042.00;;;;5030944;28;20214;-79
2021/10/27 08:05:30;;;;;;;4.25;2.90;;;;;19.90;102052.00;;;;5032278;28;20235;-78
2021/10/27 08:07:58;;;;;;;6.57;3.08;;;;;19.90;102045.00;;;;5037393;28;20226;-79
2021/10/27 08:10:29;;;;;;;3.97;2.70;;;;;19.90;102053.00;;;;5033171;28;20200;-78
2021/10/27 08:12:57;;;;;;;4.35;3.30;;;;;20.00;102046.00;;;;5028299;28;20220;-78
2021/10/27 08:15:25;;;;;;;3.97;2.67;;;;;20.00;102049.00;;;;5030789;28;20284;-79
2021/10/27 08:17:53;;;;;;;4.30;3.20;;;;;20.00;102057.00;;;;5034779;28;20686;-79
2021/10/27 08:20:23;;;;;;;4.38;3.55;;;;;20.00;102052.00;;;;5030669;28;20682;-79
2021/10/27 08:22:55;;;;;;;4.75;3.05;;;;;20.10;102057.00;;;;5040988;28;20198;-79
2021/10/27 08:25:28;;;;;;;3.83;2.80;;;;;20.10;102053.00;;;;5031127;28;20624;-79
2021/10/27 08:28:06;;;;;;;6.25;3.20;;;;;20.00;102061.00;;;;5034141;28;20279;-79
2021/10/27 08:30:39;;;;;;;5.18;3.95;;;;;20.10;102060.00;;;;5036651;28;20282;-79
2021/10/27 08:33:08;;;;;;;8.38;3.80;;;;;20.10;102057.00;;;;5035528;28;20199;-80
2021/10/27 08:35:40;;;;;;;5.13;3.45;;;;;20.10;102055.00;;;;5039156;28;20258;-79
2021/10/27 08:38:07;;;;;;;8.77;3.85;;;;;20.10;102062.00;;;;5047436;28;20307;-79
2021/10/27 08:40:34;;;;;;;5.00;3.42;;;;;20.10;102065.00;;;;5039968;28;20196;-79
2021/10/27 08:43:04;;;;;;;5.90;3.78;;;;;20.10;102067.00;;;;5034965;28;20227;-79
2021/10/27 08:45:32;;;;;;;9.52;4.97;;;;;20.20;102065.00;;;;5040421;28;20203;-79
2021/10/27 08:48:00;;;;;;;4.68;3.25;;;;;20.20;102068.00;;;;5036150;28;20195;-80
2021/10/27 08:50:27;;;;;;;5.75;3.53;;;;;20.20;102057.00;;;;5041494;28;20211;-79
2021/10/27 08:52:54;;;;;;;5.57;3.88;;;;;20.20;102049.00;;;;5035417;28;20196;-79
2021/10/27 08:55:21;;;;;;;4.47;3.13;;;;;20.20;102052.00;;;;5034179;28;20223;-78
2021/10/27 08:57:50;;;;;;;4.32;3.63;;;;;20.20;102062.00;;;;5036253;28;20589;-80
2021/10/27 09:00:24;;;;;;;5.78;3.00;;;;;20.30;102057.00;;;;5031969;28;20207;-81
2021/10/27 09:03:10;;;;;;;4.22;3.83;;;;;20.30;102065.00;;;;5027062;28;20204;-80
2021/10/27 09:40:25;;;;;;;5.18;4.22;;;;;20.60;102080.00;;;;5034698;28;20238;-80
2021/10/27 09:43:09;;;;;;;3.80;3.40;;;;;20.60;102073.00;;;;5057334;28;20697;-80
2021/10/27 10:05:10;;;;;;;6.80;5.60;;;;;21.00;102070.00;;;;5039794;28;20226;-79
2021/10/27 10:07:40;;;;;;;6.03;5.10;;;;;21.10;102070.00;;;;5035055;28;20842;-80
2021/10/27 10:10:09;;;;;;;5.28;4.30;;;;;21.20;102076.00;;;;5037865;28;20219;-79
2021/10/27 10:12:39;;;;;;;6.03;5.20;;;;;21.30;102079.00;;;;5039864;28;20211;-80
2021/10/27 10:15:07;;;;;;;5.15;4.63;;;;;21.30;102078.00;;;;5038650;28;20192;-78
2021/10/27 10:17:35;;;;;;;6.72;4.88;;;;;21.40;102084.00;;;;5035812;28;20228;-79
2021/10/27 10:20:05;;;;;;;6.55;4.63;;;;;21.50;102088.00;;;;5037563;28;20294;-76
2021/10/27 10:22:36;;;;;;;9.65;4.43;;;;;21.50;102084.00;;;;5048027;28;20352;-78
2021/10/27 10:25:27;;;;;;;6.82;4.45;;;;;21.40;102093.00;;;;5039195;28;20200;-77
2021/10/27 10:27:56;;;;;;;6.60;5.05;;;;;21.50;102088.00;;;;5033193;28;20738;-80
2021/10/27 10:30:29;;;;;;;5.80;4.65;;;;;21.50;102096.00;;;;5039086;28;20204;-82
2021/10/27 10:33:05;;;;;;;7.55;4.57;;;;;21.50;102093.00;;;;5032744;28;20251;-80
2021/10/27 10:35:46;;;;;;;7.05;4.93;;;;;21.50;102099.00;;;;5033365;28;20200;-80
2021/10/27 10:41:44;;;;;;;5.95;4.03;;;;;21.50;102094.00;;;;5007144;28;20789;-81
2021/10/27 10:58:49;;;;;;;5.25;4.32;;;;;21.60;102109.00;;;;5029288;28;20719;-78
2021/10/27 11:01:54;;;;;;;5.32;3.85;;;;;21.50;102111.00;;;;5030095;28;20227;-79
2021/10/27 11:24:36;;;;;;;4.90;3.75;;;;;21.60;102103.00;;;;5031706;28;20558;-78
2021/10/27 11:38:23;;;;;;;4.53;3.95;;;;;21.60;102089.00;;;;5043200;28;20604;-78
2021/10/27 11:40:56;;;;;;;6.15;4.03;;;;;21.60;102087.00;;;;5036504;28;20204;-79
2021/10/27 11:43:34;;;;;;;6.53;4.07;;;;;21.60;102079.00;;;;5043256;28;20196;-80
2021/10/27 11:46:10;;;;;;;6.45;4.13;;;;;21.60;102079.00;;;;5043671;28;20196;-79
2021/10/27 11:48:54;;;;;;;6.57;3.83;;;;;21.60;102065.00;;;;5032817;28;20208;-80
2021/10/27 11:51:22;;;;;;;4.82;3.60;;;;;21.70;102065.00;;;;5035044;28;20283;-79
2021/10/27 11:53:49;;;;;;;4.65;4.00;;;;;21.70;102055.00;;;;5042516;28;20195;-79
2021/10/27 11:56:21;;;;;;;3.65;3.22;;;;;21.70;102059.00;;;;5029796;28;20199;-80
2021/10/27 11:58:49;;;;;;;4.00;3.13;;;;;21.80;102056.00;;;;5027626;28;20418;-81
2021/10/27 12:01:21;;;;;;;4.15;3.75;;;;;21.90;102050.00;;;;5043295;28;20218;-81
2021/10/27 12:03:49;;;;;;;4.57;3.67;;;;;22.00;102053.00;;;;5031699;28;20231;-81
2021/10/27 12:06:46;;;;;;;6.80;4.20;;;;;22.00;102053.00;;;;5040327;28;20242;-80
2021/10/27 12:09:45;;;;;;;5.50;4.43;;;;;22.10;102047.00;;;;5033775;28;20200;-80
2021/10/27 12:12:17;;;;;;;7.10;4.93;;;;;22.20;102049.00;;;;5038862;28;20554;-80
2021/10/27 12:15:29;;;;;;;4.90;3.80;;;;;22.10;102045.00;;;;5033078;28;20516;-79
2021/10/27 12:18:02;;;;;;;3.95;3.63;;;;;22.20;102033.00;;;;5034589;28;20220;-81
2021/10/27 12:20:36;;;;;;;4.82;4.32;;;;;22.20;102028.00;;;;5037455;28;20222;-80
2021/10/27 12:23:05;;;;;;;6.18;4.45;;;;;22.30;102031.00;;;;5028434;28;20204;-77
2021/10/27 12:25:33;;;;;;;5.38;4.85;;;;;22.30;102025.00;;;;5032986;28;20212;-79
2021/10/27 12:28:04;;;;;;;5.85;5.25;;;;;22.30;102028.00;;;;5027567;28;20228;-79
2021/10/27 12:30:44;;;;;;;7.13;4.72;;;;;22.30;102022.00;;;;5036005;28;20195;-79
2021/10/27 12:33:12;;;;;;;6.13;5.28;;;;;22.30;102022.00;;;;5029298;28;20196;-80
2021/10/27 12:35:40;;;;;;;5.55;5.05;;;;;22.30;102015.00;;;;5029096;28;20199;-79
2021/10/27 12:38:15;;;;;;;5.72;5.00;;;;;22.40;102015.00;;;;5035451;28;20259;-79
2021/10/27 12:40:43;;;;;;;5.80;4.97;;;;;22.40;102019.00;;;;5043276;28;20206;-78
2021/10/27 12:43:12;;;;;;;5.63;4.72;;;;;22.30;102019.00;;;;5045668;28;20203;-79
2021/10/27 12:45:42;;;;;;;7.80;5.88;;;;;22.30;102012.00;;;;5029891;28;20196;-79
2021/10/27 12:48:13;;;;;;;4.90;4.40;;;;;22.30;102009.00;;;;5032627;28;20849;-78
2021/10/27 12:50:53;;;;;;;5.18;4.20;;;;;22.20;102011.00;;;;5035831;28;20231;-80
2021/10/27 12:53:32;;;;;;;5.00;4.35;;;;;22.20;102005.00;;;;5035079;28;20197;-80
2021/10/27 12:56:08;;;;;;;5.25;4.45;;;;;22.30;102005.00;;;;5040325;28;20330;-80
2021/10/27 12:58:38;;;;;;;4.82;4.30;;;;;22.50;101995.00;;;;5033201;28;20223;-80
2021/10/27 13:01:20;;;;;;;5.45;4.18;;;;;22.80;101997.00;;;;5032550;28;20583;-81
2021/10/27 13:04:23;;;;;;;5.18;4.65;;;;;22.90;101993.00;;;;5035923;28;20204;-82
2021/10/27 13:06:57;;;;;;;5.95;5.18;;;;;23.10;101992.00;;;;5033404;28;20224;-81
2021/10/27 13:12:26;;;;;;;6.15;5.20;;;;;23.10;101998.00;;;;5030651;28;20210;-78
2021/10/27 13:18:08;;;;;;;5.40;4.90;;;;;23.00;101997.00;;;;5040932;28;20219;-80
2021/10/27 13:23:44;;;;;;;5.63;4.50;;;;;23.40;101988.00;;;;5044309;28;20195;-79
2021/10/27 13:31:41;;;;;;;6.13;4.30;;;;;23.50;101977.00;;;;5043448;28;20688;-81
2021/10/27 13:34:09;;;;;;;7.35;4.22;;;;;23.50;101983.00;;;;5041275;28;20219;-80
2021/10/27 13:36:37;;;;;;;8.50;4.50;;;;;23.40;101971.00;;;;5032995;28;20203;-81
2021/10/27 13:39:05;;;;;;;5.10;4.57;;;;;23.50;101975.00;;;;5037925;28;20234;-79
2021/10/27 13:41:33;;;;;;;5.93;4.15;;;;;23.60;101979.00;;;;5044439;28;20239;-81
2021/10/27 13:44:07;;;;;;;7.18;4.93;;;;;23.70;101979.00;;;;5058443;28;21317;-81
2021/10/27 13:46:49;;;;;;;7.78;4.82;;;;;23.80;101975.00;;;;5047141;28;20212;-83
2021/10/27 13:49:42;;;;;;;7.28;4.53;;;;;24.00;101982.00;;;;5037428;28;20200;-82
2021/10/27 14:06:09;;;;;;;5.78;4.45;;;;;24.60;101985.00;;;;5038158;28;20265;-85
2021/10/27 14:08:46;;;;;;;5.63;4.55;;;;;24.50;101980.00;;;;5043675;28;20286;-85
2021/10/27 14:11:19;;;;;;;5.53;4.85;;;;;24.40;101976.00;;;;5046916;28;20253;-83
2021/10/27 14:13:59;;;;;;;6.68;4.65;;;;;24.30;101982.00;;;;5046144;28;20292;-84
2021/10/27 14:22:31;;;;;;;6.15;4.97;;;;;23.90;101976.00;;;;5037422;28;20203;-83
2021/10/27 14:47:37;;;;;;;5.50;4.38;;;;;22.90;101968.00;;;;5035852;28;20207;-84
2021/10/27 15:20:37;;;;;;;5.15;4.43;;;;;22.00;101942.00;;;;5036740;28;20206;-85
2021/10/27 15:23:11;;;;;;;3.92;3.53;;;;;22.00;101941.00;;;;5049685;28;20195;-85
2021/10/27 15:26:03;;;;;;;4.43;3.42;;;;;21.90;101941.00;;;;5046546;28;20216;-84
2021/10/27 15:31:27;;;;;;;5.78;3.90;;;;;21.80;101942.00;;;;5034038;28;20286;-84
2021/10/27 15:34:05;;;;;;;4.82;3.53;;;;;21.70;101944.00;;;;5040748;28;20232;-84
2021/10/27 15:36:50;;;;;;;4.50;3.63;;;;;21.70;101944.00;;;;5035133;28;20207;-85
2021/10/27 15:42:17;;;;;;;5.57;3.63;;;;;21.60;101940.00;;;;5042876;28;20234;-84
2021/10/27 15:44:58;;;;;;;5.38;3.67;;;;;21.50;101942.00;;;;5032914;28;20215;-84
2021/10/27 15:52:56;;;;;;;5.90;3.38;;;;;21.40;101948.00;;;;5029546;28;20214;-84
2021/10/27 15:55:23;;;;;;;4.68;3.55;;;;;21.30;101940.00;;;;5029908;28;20555;-84
2021/10/27 15:57:51;;;;;;;5.78;3.70;;;;;21.20;101945.00;;;;5035102;28;20208;-84
2021/10/27 16:00:21;;;;;;;4.15;3.53;;;;;21.20;101938.00;;;;5028768;28;20196;-84
2021/10/27 16:02:50;;;;;;;5.20;3.53;;;;;21.10;101939.00;;;;5048255;28;20242;-83
2021/10/27 16:05:17;;;;;;;5.68;3.58;;;;;21.10;101930.00;;;;5034501;28;20192;-84
2021/10/27 16:07:46;;;;;;;5.85;3.67;;;;;21.00;101928.00;;;;5042119;28;20204;-83